createdAt,value
2022-11-30T00:01:52.857Z,3.57
2022-11-30T00:04:20.678Z,3.51
2022-11-30T00:06:48.632Z,3.43
2022-11-30T00:09:16.635Z,3.42
2022-11-30T00:11:45.800Z,3.41
2022-11-30T00:14:13.651Z,3.32
2022-11-30T00:16:41.715Z,3.33
2022-11-30T00:19:09.612Z,3.28
2022-11-30T00:21:37.469Z,3.33
2022-11-30T00:24:06.785Z,3.40
2022-11-30T00:26:34.802Z,3.45
2022-11-30T00:29:04.208Z,3.48
2022-11-30T00:31:32.240Z,3.48
2022-11-30T00:34:00.227Z,3.46
2022-11-30T00:36:28.128Z,3.47
2022-11-30T00:38:56.669Z,3.47
2022-11-30T00:41:24.506Z,3.43
2022-11-30T00:43:52.339Z,3.35
2022-11-30T00:46:21.559Z,3.48
2022-11-30T00:48:49.979Z,3.45
2022-11-30T00:51:18.499Z,3.41
2022-11-30T00:53:47.666Z,3.39
2022-11-30T00:56:15.684Z,3.40
2022-11-30T00:58:43.620Z,3.37
2022-11-30T01:01:11.560Z,3.38
2022-11-30T01:03:40.868Z,3.34
2022-11-30T01:06:10.650Z,3.35
2022-11-30T01:08:38.950Z,3.36
2022-11-30T01:11:09.529Z,3.32
2022-11-30T01:13:37.437Z,3.35
2022-11-30T01:16:10.719Z,3.38
2022-11-30T01:18:40.329Z,3.39
2022-11-30T01:21:09.488Z,3.40
2022-11-30T01:23:37.532Z,3.46
2022-11-30T01:26:05.504Z,3.41
2022-11-30T01:28:33.636Z,3.38
2022-11-30T01:31:03.114Z,3.34
2022-11-30T01:33:31.377Z,3.35
2022-11-30T01:36:02.727Z,3.34
2022-11-30T01:38:33.939Z,3.36
2022-11-30T01:41:01.999Z,3.26
2022-11-30T01:43:43.738Z,3.21
2022-11-30T01:46:33.231Z,3.22
2022-11-30T01:49:06.069Z,3.26
2022-11-30T01:51:39.201Z,3.31
2022-11-30T01:54:11.531Z,3.34
2022-11-30T01:56:44.193Z,3.35
2022-11-30T01:59:12.985Z,3.40
2022-11-30T02:01:41.105Z,3.45
2022-11-30T02:04:14.691Z,3.49
2022-11-30T02:06:45.123Z,3.44
2022-11-30T02:09:15.060Z,3.47
2022-11-30T02:11:43.316Z,3.41
2022-11-30T02:14:24.667Z,3.30
2022-11-30T02:17:02.189Z,3.29
2022-11-30T02:19:59.248Z,3.22
2022-11-30T02:22:47.235Z,3.23
2022-11-30T02:25:26.618Z,3.16
2022-11-30T02:28:14.095Z,3.22
2022-11-30T02:30:48.022Z,3.23
2022-11-30T02:33:19.260Z,3.20
2022-11-30T02:35:54.676Z,3.19
2022-11-30T02:38:25.169Z,3.22
2022-11-30T02:40:53.343Z,3.27
2022-11-30T02:43:23.446Z,3.28
2022-11-30T02:46:00.533Z,3.31
2022-11-30T02:48:33.562Z,3.35
2022-11-30T02:51:05.583Z,3.36
2022-11-30T02:53:33.469Z,3.39
2022-11-30T02:56:01.507Z,3.35
2022-11-30T02:58:29.633Z,3.33
2022-11-30T03:00:58.845Z,3.34
2022-11-30T03:03:26.646Z,3.37
2022-11-30T03:05:54.544Z,3.37
2022-11-30T03:08:22.431Z,3.29
2022-11-30T03:10:50.577Z,3.27
2022-11-30T03:13:18.552Z,3.35
2022-11-30T03:15:46.427Z,3.37
2022-11-30T03:18:15.726Z,3.44
2022-11-30T03:20:44.007Z,3.36
2022-11-30T03:23:11.984Z,3.40
2022-11-30T03:25:39.989Z,3.40
2022-11-30T03:28:07.886Z,3.44
2022-11-30T03:30:35.695Z,3.43
2022-11-30T03:33:03.687Z,3.42
2022-11-30T03:35:32.928Z,3.34
2022-11-30T03:38:00.821Z,3.31
2022-11-30T03:40:28.607Z,3.22
2022-11-30T03:42:56.487Z,3.16
2022-11-30T03:45:24.367Z,3.23
2022-11-30T03:47:54.365Z,3.21
2022-11-30T03:50:22.796Z,3.21
2022-11-30T03:52:52.091Z,3.12
2022-11-30T03:55:19.938Z,3.02
2022-11-30T03:57:47.826Z,3.00
2022-11-30T04:00:16.810Z,2.95
2022-11-30T04:02:45.213Z,3.00
2022-11-30T04:05:13.547Z,3.15
2022-11-30T04:07:41.492Z,3.19
2022-11-30T04:10:12.229Z,3.18
2022-11-30T04:12:40.138Z,3.12
2022-11-30T04:15:09.507Z,3.16
2022-11-30T04:17:37.371Z,3.35
2022-11-30T04:20:06.230Z,3.36
2022-11-30T04:22:34.751Z,3.37
2022-11-30T04:25:02.542Z,3.39
2022-11-30T04:27:31.779Z,3.46
2022-11-30T04:29:59.733Z,3.50
2022-11-30T04:32:27.639Z,3.48
2022-11-30T04:34:55.552Z,3.51
2022-11-30T04:37:23.440Z,3.48
2022-11-30T04:39:51.355Z,3.45
2022-11-30T04:42:19.301Z,3.44
2022-11-30T04:44:51.316Z,3.41
2022-11-30T04:47:19.249Z,3.39
2022-11-30T04:49:47.042Z,3.33
2022-11-30T04:52:14.925Z,3.36
2022-11-30T04:54:42.826Z,3.40
2022-11-30T04:57:10.694Z,3.38
2022-11-30T04:59:38.487Z,3.28
2022-11-30T05:02:07.811Z,3.25
2022-11-30T05:04:35.691Z,3.28
2022-11-30T05:07:03.574Z,3.35
2022-11-30T05:09:31.854Z,3.34
2022-11-30T05:11:59.808Z,3.29
2022-11-30T05:14:27.629Z,3.30
2022-11-30T05:16:55.631Z,3.13
2022-11-30T05:19:24.826Z,3.29
2022-11-30T05:21:53.045Z,3.25
2022-11-30T05:24:20.878Z,3.16
2022-11-30T05:26:48.797Z,3.11
2022-11-30T05:29:16.703Z,3.15
2022-11-30T05:31:44.700Z,3.18
2022-11-30T05:34:12.517Z,3.27
2022-11-30T05:36:41.698Z,3.27
2022-11-30T05:39:09.676Z,3.30
2022-11-30T05:41:37.630Z,3.35
2022-11-30T05:44:06.397Z,3.36
2022-11-30T05:46:37.124Z,3.34
2022-11-30T05:49:08.886Z,3.34
2022-11-30T05:51:36.695Z,3.39
2022-11-30T05:54:06.150Z,3.36
2022-11-30T05:56:34.035Z,3.32
2022-11-30T05:59:01.884Z,3.34
2022-11-30T06:01:30.562Z,3.34
2022-11-30T06:03:58.403Z,3.34
2022-11-30T06:06:26.372Z,3.37
2022-11-30T06:08:55.274Z,3.42
2022-11-30T06:11:24.477Z,3.44
2022-11-30T06:13:52.327Z,3.45
2022-11-30T06:16:20.370Z,3.42
2022-11-30T06:18:48.311Z,3.42
2022-11-30T06:21:21.000Z,3.48
2022-11-30T06:23:51.925Z,3.47
2022-11-30T06:26:19.778Z,3.36
2022-11-30T06:28:49.243Z,3.30
2022-11-30T06:31:17.861Z,3.34
2022-11-30T06:33:45.765Z,3.40
2022-11-30T06:36:13.640Z,3.45
2022-11-30T06:38:41.769Z,3.49
2022-11-30T06:41:12.512Z,3.50
2022-11-30T06:43:40.895Z,3.48
2022-11-30T06:46:11.371Z,3.51
2022-11-30T06:48:39.730Z,3.58
2022-11-30T06:51:08.647Z,3.59
2022-11-30T06:53:36.863Z,3.57
2022-11-30T06:56:09.911Z,3.55
2022-11-30T06:58:39.092Z,3.58
2022-11-30T07:01:08.285Z,3.60
2022-11-30T07:03:37.939Z,3.56
2022-11-30T07:06:09.112Z,3.55
2022-11-30T07:08:36.981Z,3.50
2022-11-30T07:11:05.351Z,3.54
2022-11-30T07:13:33.249Z,3.56
2022-11-30T07:16:04.548Z,3.61
2022-11-30T07:18:32.849Z,3.64
2022-11-30T07:21:03.672Z,3.63
2022-11-30T07:23:55.939Z,3.60
2022-11-30T07:26:25.588Z,3.64
2022-11-30T07:28:58.142Z,3.77
2022-11-30T07:31:28.213Z,3.75
2022-11-30T07:33:57.236Z,3.96
2022-11-30T07:36:29.577Z,4.04
2022-11-30T07:38:57.528Z,4.07
2022-11-30T07:41:25.738Z,4.12
2022-11-30T07:43:53.748Z,4.14
2022-11-30T07:46:21.938Z,4.19
2022-11-30T07:48:49.787Z,4.23
2022-11-30T07:51:19.960Z,4.24
2022-11-30T07:53:49.844Z,4.38
2022-11-30T07:56:19.970Z,4.45
2022-11-30T07:58:48.710Z,4.47
2022-11-30T08:01:18.269Z,4.52
2022-11-30T08:03:46.440Z,4.50
2022-11-30T08:06:16.480Z,4.41
2022-11-30T08:08:45.729Z,4.29
2022-11-30T08:11:16.738Z,4.24
2022-11-30T08:13:45.361Z,4.35
2022-11-30T08:16:15.588Z,4.41
2022-11-30T08:18:44.166Z,4.40
2022-11-30T08:21:14.303Z,4.56
2022-11-30T08:23:43.719Z,4.56
2022-11-30T08:26:13.449Z,4.60
2022-11-30T08:28:43.818Z,4.61
2022-11-30T08:31:14.056Z,4.67
2022-11-30T08:33:42.077Z,4.70
2022-11-30T08:36:11.957Z,4.71
2022-11-30T08:38:41.203Z,4.74
2022-11-30T08:41:11.745Z,4.77
2022-11-30T08:43:44.131Z,4.82
2022-11-30T08:46:49.056Z,4.79
2022-11-30T08:49:20.381Z,4.86
2022-11-30T08:54:39.036Z,5.07
2022-11-30T08:57:06.980Z,5.19
2022-11-30T08:59:36.227Z,5.30
2022-11-30T09:02:04.603Z,5.34
2022-11-30T09:04:32.503Z,5.37
2022-11-30T09:07:01.002Z,5.37
2022-11-30T09:09:29.109Z,5.46
2022-11-30T09:11:57.178Z,5.58
2022-11-30T09:14:24.992Z,5.66
2022-11-30T09:16:56.185Z,5.55
2022-11-30T09:19:24.054Z,5.70
2022-11-30T09:21:52.665Z,5.78
2022-11-30T09:24:21.359Z,5.87
2022-11-30T09:26:49.197Z,5.89
2022-11-30T09:29:17.218Z,5.98
2022-11-30T09:31:45.054Z,6.03
2022-11-30T09:34:14.295Z,6.10
2022-11-30T09:36:42.223Z,6.16
2022-11-30T09:39:12.693Z,6.19
2022-11-30T09:42:04.998Z,6.22
2022-11-30T09:44:44.487Z,6.23
2022-11-30T09:47:32.630Z,6.28
2022-11-30T09:50:06.019Z,6.27
2022-11-30T09:52:36.880Z,6.21
2022-11-30T09:55:09.938Z,5.96
2022-11-30T09:57:46.979Z,6.07
2022-11-30T10:00:19.095Z,5.94
2022-11-30T10:02:47.204Z,5.93
2022-11-30T10:05:18.461Z,5.76
2022-11-30T10:08:01.861Z,5.80
2022-11-30T10:10:37.262Z,5.82
2022-11-30T10:13:16.087Z,5.90
2022-11-30T10:15:57.414Z,5.97
2022-11-30T10:18:37.883Z,6.03
2022-11-30T10:21:18.377Z,6.12
2022-11-30T10:24:02.747Z,6.24
2022-11-30T10:26:34.614Z,6.31
2022-11-30T10:29:13.916Z,6.36
2022-11-30T10:31:43.913Z,6.38
2022-11-30T10:34:20.281Z,6.45
2022-11-30T10:36:54.753Z,6.53
2022-11-30T10:39:29.754Z,6.62
2022-11-30T10:42:02.501Z,6.66
2022-11-30T10:44:35.449Z,6.66
2022-11-30T10:47:11.250Z,6.68
2022-11-30T10:49:43.626Z,6.70
2022-11-30T10:52:19.793Z,6.69
2022-11-30T10:54:56.854Z,6.79
2022-11-30T10:57:32.268Z,6.84
2022-11-30T11:00:03.495Z,6.81
2022-11-30T11:02:42.961Z,6.77
2022-11-30T11:05:20.095Z,6.81
2022-11-30T11:08:04.723Z,6.83
2022-11-30T11:10:36.767Z,6.78
2022-11-30T11:13:05.319Z,6.70
2022-11-30T11:15:35.177Z,6.76
2022-11-30T11:18:22.755Z,6.69
2022-11-30T11:21:05.931Z,6.75
2022-11-30T11:23:38.851Z,6.81
2022-11-30T11:26:08.552Z,6.90
2022-11-30T11:28:39.324Z,7.02
2022-11-30T11:31:19.419Z,7.11
2022-11-30T11:33:55.095Z,7.14
2022-11-30T11:36:28.544Z,7.19
2022-11-30T11:38:58.780Z,7.23
2022-11-30T11:41:29.330Z,7.25
2022-11-30T11:44:02.240Z,7.28
2022-11-30T11:46:31.765Z,7.29
2022-11-30T11:49:02.594Z,7.33
2022-11-30T11:51:32.866Z,7.33
2022-11-30T11:54:06.454Z,7.30
2022-11-30T11:56:37.057Z,7.39
2022-11-30T11:59:14.048Z,7.39
2022-11-30T12:01:51.140Z,7.43
2022-11-30T12:04:37.298Z,7.44
2022-11-30T12:07:18.158Z,7.33
2022-11-30T12:09:56.556Z,7.30
2022-11-30T12:12:24.477Z,7.35
2022-11-30T12:14:52.384Z,7.33
2022-11-30T12:17:33.331Z,7.35
2022-11-30T12:20:14.089Z,7.36
2022-11-30T12:22:54.259Z,7.34
2022-11-30T12:25:27.595Z,7.35
2022-11-30T12:28:06.646Z,7.35
2022-11-30T12:30:47.434Z,7.30
2022-11-30T12:33:26.318Z,7.30
2022-11-30T12:36:02.706Z,7.30
2022-11-30T12:38:40.185Z,7.35
2022-11-30T12:41:28.431Z,7.33
2022-11-30T12:44:11.696Z,7.28
2022-11-30T12:46:48.321Z,7.35
2022-11-30T12:49:34.983Z,7.33
2022-11-30T12:52:15.933Z,7.32
2022-11-30T12:54:55.443Z,7.26
2022-11-30T12:57:31.526Z,7.30
2022-11-30T13:00:07.491Z,7.26
2022-11-30T13:03:03.755Z,7.24
2022-11-30T13:05:36.834Z,7.23
2022-11-30T13:08:12.221Z,7.20
2022-11-30T13:10:45.468Z,7.15
2022-11-30T13:13:27.919Z,7.18
2022-11-30T13:15:57.473Z,7.10
2022-11-30T13:18:26.120Z,7.17
2022-11-30T13:21:04.855Z,7.17
2022-11-30T13:23:38.215Z,7.05
2022-11-30T13:26:15.819Z,7.15
2022-11-30T13:29:07.815Z,7.11
2022-11-30T13:31:40.768Z,7.08
2022-11-30T13:34:24.361Z,7.10
2022-11-30T13:36:52.720Z,7.11
2022-11-30T13:39:24.331Z,7.11
2022-11-30T13:42:08.965Z,7.11
2022-11-30T13:44:39.788Z,7.11
2022-11-30T13:47:18.948Z,7.10
2022-11-30T13:49:47.552Z,7.07
2022-11-30T13:52:24.455Z,7.07
2022-11-30T13:54:55.620Z,7.07
2022-11-30T13:58:00.652Z,7.08
2022-11-30T14:01:02.039Z,7.05
2022-11-30T14:03:31.421Z,7.04
2022-11-30T14:06:00.398Z,7.03
2022-11-30T14:08:34.247Z,7.02
2022-11-30T14:11:39.470Z,7.02
2022-11-30T14:14:46.148Z,7.01
2022-11-30T14:17:20.104Z,6.99
2022-11-30T14:19:50.645Z,6.99
2022-11-30T14:22:19.366Z,6.96
2022-11-30T14:24:49.629Z,6.93
2022-11-30T14:27:21.255Z,6.89
2022-11-30T14:29:54.224Z,6.85
2022-11-30T14:32:35.007Z,6.83
2022-11-30T14:35:09.064Z,6.80
2022-11-30T14:37:44.569Z,6.76
2022-11-30T14:40:19.122Z,6.74
2022-11-30T14:42:50.574Z,6.70
2022-11-30T14:45:25.329Z,6.66
2022-11-30T14:48:05.494Z,6.62
2022-11-30T14:50:33.617Z,6.58
2022-11-30T14:53:11.800Z,6.56
2022-11-30T14:55:46.733Z,6.51
2022-11-30T14:58:22.388Z,6.45
2022-11-30T15:00:51.517Z,6.41
2022-11-30T15:03:25.998Z,6.35
2022-11-30T15:05:56.106Z,6.30
2022-11-30T15:08:26.809Z,6.27
2022-11-30T15:10:56.584Z,6.25
2022-11-30T15:13:24.713Z,6.24
2022-11-30T15:15:55.084Z,6.21
2022-11-30T15:18:25.460Z,6.20
2022-11-30T15:20:57.427Z,6.20
2022-11-30T15:23:25.393Z,6.26
2022-11-30T15:25:57.628Z,6.20
2022-11-30T15:28:32.262Z,6.27
2022-11-30T15:31:05.184Z,6.29
2022-11-30T15:33:41.159Z,6.28
2022-11-30T15:36:27.805Z,6.26
2022-11-30T15:38:57.976Z,6.27
2022-11-30T15:41:26.824Z,6.27
2022-11-30T15:43:56.506Z,6.23
2022-11-30T15:46:33.511Z,6.25
2022-11-30T15:49:24.495Z,6.28
2022-11-30T15:52:04.219Z,6.28
2022-11-30T15:54:48.362Z,6.31
2022-11-30T15:57:16.889Z,6.32
2022-11-30T15:59:45.197Z,6.31
2022-11-30T16:02:28.750Z,6.33
2022-11-30T16:05:24.036Z,6.34
2022-11-30T16:07:55.415Z,6.34
2022-11-30T16:10:25.826Z,6.33
2022-11-30T16:12:55.530Z,6.28
2022-11-30T16:15:25.605Z,6.30
2022-11-30T16:17:54.796Z,6.27
2022-11-30T16:20:25.032Z,6.24
2022-11-30T16:22:52.950Z,6.19
2022-11-30T16:25:23.272Z,6.02
2022-11-30T16:27:51.822Z,6.07
2022-11-30T16:30:21.608Z,6.01
2022-11-30T16:32:50.088Z,5.95
2022-11-30T16:35:25.247Z,5.91
2022-11-30T16:37:53.238Z,5.87
2022-11-30T16:40:21.367Z,5.83
2022-11-30T16:42:50.156Z,5.78
2022-11-30T16:45:21.242Z,5.72
2022-11-30T16:47:49.058Z,5.76
2022-11-30T16:50:17.178Z,5.75
2022-11-30T16:52:47.105Z,5.73
2022-11-30T16:55:16.943Z,5.72
2022-11-30T16:57:45.103Z,5.73
2022-11-30T17:00:15.938Z,5.71
2022-11-30T17:02:46.928Z,5.70
2022-11-30T17:05:16.211Z,5.72
2022-11-30T17:07:44.603Z,5.75
2022-11-30T17:10:14.108Z,5.74
2022-11-30T17:12:42.057Z,5.74
2022-11-30T17:15:15.401Z,5.74
2022-11-30T17:17:43.481Z,5.71
2022-11-30T17:20:12.923Z,5.72
2022-11-30T17:22:41.005Z,5.73
2022-11-30T17:25:14.392Z,5.77
2022-11-30T17:27:44.180Z,5.80
2022-11-30T17:30:13.765Z,5.82
2022-11-30T17:32:41.648Z,5.81
2022-11-30T17:35:10.248Z,5.80
2022-11-30T17:37:38.107Z,5.75
2022-11-30T17:40:08.395Z,5.81
2022-11-30T17:42:37.391Z,5.82
2022-11-30T17:45:07.563Z,5.86
2022-11-30T17:47:35.511Z,5.80
2022-11-30T17:50:03.629Z,5.88
2022-11-30T17:52:31.552Z,5.89
2022-11-30T17:54:59.470Z,5.88
2022-11-30T17:57:27.334Z,5.88
2022-11-30T17:59:55.308Z,5.87
2022-11-30T18:02:24.627Z,5.85
2022-11-30T18:04:52.680Z,5.78
2022-11-30T18:07:21.116Z,5.82
2022-11-30T18:09:49.091Z,5.81
2022-11-30T18:12:17.048Z,5.77
2022-11-30T18:14:44.928Z,5.76
2022-11-30T18:17:12.778Z,5.75
2022-11-30T18:19:41.942Z,5.69
2022-11-30T18:22:09.737Z,5.70
2022-11-30T18:24:37.524Z,5.71
2022-11-30T18:27:05.544Z,5.63
2022-11-30T18:29:33.434Z,5.69
2022-11-30T18:32:01.421Z,5.66
2022-11-30T18:34:29.452Z,5.55
2022-11-30T18:36:58.716Z,5.63
2022-11-30T18:39:26.621Z,5.63
2022-11-30T18:41:54.491Z,5.61
2022-11-30T18:44:22.440Z,5.60
2022-11-30T18:46:50.288Z,5.60
2022-11-30T18:49:20.794Z,5.50
2022-11-30T18:51:49.070Z,5.57
2022-11-30T18:54:19.167Z,5.55
2022-11-30T18:56:47.048Z,5.50
2022-11-30T18:59:15.969Z,5.55
2022-11-30T19:01:43.847Z,5.54
2022-11-30T19:04:12.470Z,5.53
2022-11-30T19:06:42.430Z,5.56
2022-11-30T19:09:12.982Z,5.57
2022-11-30T19:11:44.052Z,5.58
2022-11-30T19:14:14.124Z,5.44
2022-11-30T19:16:42.063Z,5.55
2022-11-30T19:19:13.803Z,5.53
2022-11-30T19:21:44.082Z,5.54
2022-11-30T19:24:12.265Z,5.46
2022-11-30T19:26:40.650Z,5.32
2022-11-30T19:29:12.045Z,5.44
2022-11-30T19:31:40.086Z,5.44
2022-11-30T19:34:12.473Z,5.40
2022-11-30T19:36:41.226Z,5.33
2022-11-30T19:39:10.618Z,5.28
2022-11-30T19:41:38.532Z,5.21
2022-11-30T19:44:06.409Z,5.17
2022-11-30T19:46:35.691Z,5.18
2022-11-30T19:49:03.849Z,5.20
2022-11-30T19:51:32.653Z,5.21
2022-11-30T19:54:01.993Z,5.13
2022-11-30T19:56:35.763Z,5.06
2022-11-30T19:59:05.713Z,5.04
2022-11-30T20:01:35.810Z,5.02
2022-11-30T20:04:04.338Z,4.97
2022-11-30T20:06:33.945Z,5.11
2022-11-30T20:09:01.957Z,5.14
2022-11-30T20:11:29.984Z,5.16
2022-11-30T20:13:58.411Z,5.12
2022-11-30T20:16:26.319Z,5.17
2022-11-30T20:18:57.311Z,5.15
2022-11-30T20:21:27.346Z,5.12
2022-11-30T20:23:58.035Z,5.04
2022-11-30T20:26:29.788Z,4.96
2022-11-30T20:28:59.737Z,4.91
2022-11-30T20:31:29.281Z,4.93
2022-11-30T20:33:59.492Z,4.94
2022-11-30T20:36:27.446Z,5.10
2022-11-30T20:38:55.537Z,5.12
2022-11-30T20:41:24.995Z,5.18
2022-11-30T20:43:53.263Z,5.19
2022-11-30T20:46:22.662Z,5.19
2022-11-30T20:48:50.741Z,5.15
2022-11-30T20:51:30.805Z,5.13
2022-11-30T20:54:00.665Z,5.11
2022-11-30T20:56:28.668Z,5.04
2022-11-30T20:58:56.967Z,5.13
2022-11-30T21:01:24.817Z,5.15
2022-11-30T21:03:53.715Z,5.17
2022-11-30T21:06:22.912Z,5.18
2022-11-30T21:08:50.847Z,5.17
2022-11-30T21:11:21.402Z,5.11
2022-11-30T21:13:53.774Z,5.09
2022-11-30T21:16:28.231Z,5.03
2022-11-30T21:18:58.398Z,4.98
2022-11-30T21:21:30.571Z,4.93
2022-11-30T21:24:00.672Z,4.87
2022-11-30T21:26:30.816Z,4.73
2022-11-30T21:29:01.690Z,4.82
2022-11-30T21:31:30.247Z,4.82
2022-11-30T21:34:02.700Z,4.78
2022-11-30T21:36:32.072Z,4.84
2022-11-30T21:39:05.523Z,4.81
2022-11-30T21:41:35.349Z,4.76
2022-11-30T21:44:07.487Z,4.70
2022-11-30T21:46:35.681Z,4.70
2022-11-30T21:49:04.051Z,4.67
2022-11-30T21:51:33.284Z,4.67
2022-11-30T21:54:02.962Z,4.67
2022-11-30T21:56:32.560Z,4.65
2022-11-30T21:59:00.786Z,4.63
2022-11-30T22:01:30.321Z,4.58
2022-11-30T22:03:59.071Z,4.51
2022-11-30T22:06:28.544Z,4.52
2022-11-30T22:09:02.754Z,4.44
2022-11-30T22:11:31.748Z,4.36
2022-11-30T22:13:59.679Z,4.33
2022-11-30T22:16:35.272Z,4.29
2022-11-30T22:19:04.947Z,4.43
2022-11-30T22:21:33.367Z,4.50
2022-11-30T22:24:04.743Z,4.54
2022-11-30T22:26:33.781Z,4.57
2022-11-30T22:29:02.970Z,4.61
2022-11-30T22:31:32.361Z,4.65
2022-11-30T22:34:00.311Z,4.71
2022-11-30T22:36:29.875Z,4.69
2022-11-30T22:38:59.675Z,4.68
2022-11-30T22:41:30.810Z,4.75
2022-11-30T22:43:59.701Z,4.76
2022-11-30T22:46:29.276Z,4.75
2022-11-30T22:48:59.850Z,4.71
2022-11-30T22:51:29.979Z,4.73
2022-11-30T22:53:58.979Z,4.70
2022-11-30T22:56:29.732Z,4.66
2022-11-30T22:59:00.618Z,4.61
2022-11-30T23:01:30.604Z,4.56
2022-11-30T23:04:03.228Z,4.52
2022-11-30T23:06:31.161Z,4.43
2022-11-30T23:09:00.580Z,4.43
2022-11-30T23:11:30.948Z,4.38
2022-11-30T23:13:58.993Z,4.32
2022-11-30T23:16:27.118Z,4.30
2022-11-30T23:18:57.395Z,4.32
2022-11-30T23:21:27.328Z,4.34
2022-11-30T23:23:56.482Z,4.37
2022-11-30T23:26:26.401Z,4.37
2022-11-30T23:28:59.536Z,4.36
2022-11-30T23:31:34.099Z,4.35
2022-11-30T23:34:05.900Z,4.30
2022-11-30T23:36:34.167Z,4.31
2022-11-30T23:39:03.788Z,4.35
2022-11-30T23:41:31.798Z,4.29
2022-11-30T23:44:01.524Z,4.11
2022-11-30T23:46:29.708Z,3.99
2022-11-30T23:48:57.807Z,3.82
2022-11-30T23:51:26.120Z,3.81
2022-11-30T23:53:54.768Z,3.84
2022-11-30T23:56:24.330Z,3.85
2022-11-30T23:58:52.827Z,3.74
